Time;durP1;ratioP1;P1;durP2;ratioP2;P2;SDS_P1;SDS_P2;PMS_P1;PMS_P2;Temp;Humidity;BMP_temperature;BMP_pressure;BME280_temperature;BME280_humidity;BME280_pressure;Samples;Min_cycle;Max_cycle;Signal;HPM_P1;HPM_P2
2023/08/14 00:00:11;;;;;;;5.50;4.57;;;;;;;23.16;nan;99480.44;5030075;28;20209;-75
2023/08/14 00:02:40;;;;;;;5.87;5.37;;;;;;;23.18;nan;99483.75;5028681;28;20254;-75
2023/08/14 00:05:05;;;;;;;6.23;5.50;;;;;;;23.20;nan;99487.09;5031728;28;20464;-75
2023/08/14 00:07:31;;;;;;;7.90;5.00;;;;;;;23.20;nan;99473.72;5031548;28;20689;-75
2023/08/14 00:09:56;;;;;;;8.80;4.87;;;;;;;23.13;nan;99464.72;5034055;28;20297;-75
2023/08/14 00:12:22;;;;;;;7.00;4.90;;;;;;;23.12;nan;99469.25;5032403;28;20210;-75
2023/08/14 00:14:47;;;;;;;5.60;5.00;;;;;;;23.12;nan;99471.09;5034045;28;20197;-75
2023/08/14 00:17:12;;;;;;;6.33;4.37;;;;;;;23.00;nan;99459.16;5034230;28;20252;-75
2023/08/14 00:19:38;;;;;;;6.43;4.40;;;;;;;22.96;nan;99451.47;5034189;28;20316;-75
2023/08/14 00:22:03;;;;;;;6.50;4.77;;;;;;;22.90;nan;99449.50;5015382;28;20182;-75
2023/08/14 00:24:29;;;;;;;6.10;4.07;;;;;;;22.87;nan;99435.63;5030679;28;20209;-76
2023/08/14 00:26:54;;;;;;;4.90;3.90;;;;;;;22.78;nan;99440.22;5026425;28;20221;-76
2023/08/14 00:29:19;;;;;;;6.50;2.60;;;;;;;22.71;nan;99428.56;5030871;28;20221;-76
2023/08/14 00:31:45;;;;;;;3.10;2.60;;;;;;;22.74;nan;99423.69;5032749;28;20933;-75
2023/08/14 00:34:10;;;;;;;5.33;2.60;;;;;;;22.69;nan;99422.56;5031551;28;20209;-75
2023/08/14 00:36:36;;;;;;;4.80;2.63;;;;;;;22.60;nan;99418.28;5032554;28;20206;-75
2023/08/14 00:39:03;;;;;;;3.33;2.00;;;;;;;22.45;nan;99410.22;5014651;28;20193;-75
2023/08/14 00:41:28;;;;;;;2.00;1.80;;;;;;;22.30;nan;99389.59;5032386;28;20593;-76
2023/08/14 00:43:54;;;;;;;2.10;1.27;;;;;;;22.24;nan;99376.91;5029684;28;20452;-76
2023/08/14 00:46:19;;;;;;;2.87;1.60;;;;;;;22.19;nan;99371.25;5030218;28;20208;-76
2023/08/14 00:48:45;;;;;;;2.07;1.40;;;;;;;22.14;nan;99375.44;5032927;28;20202;-75
2023/08/14 00:51:10;;;;;;;4.97;2.10;;;;;;;22.10;nan;99366.97;5016262;28;20235;-75
2023/08/14 00:53:37;;;;;;;4.60;1.40;;;;;;;22.12;nan;99372.13;5034406;28;20229;-75
2023/08/14 00:56:03;;;;;;;3.00;1.30;;;;;;;22.16;nan;99376.94;5015883;28;20426;-75
2023/08/14 00:58:29;;;;;;;3.43;1.90;;;;;;;22.22;nan;99386.94;5036320;28;20275;-77
2023/08/14 01:00:55;;;;;;;2.00;1.13;;;;;;;22.27;nan;99389.91;5034868;28;20459;-76
2023/08/14 01:03:23;;;;;;;2.00;1.50;;;;;;;22.28;nan;99396.13;5033021;28;20427;-75
2023/08/14 01:05:48;;;;;;;2.90;1.60;;;;;;;22.26;nan;99406.19;5015726;28;20435;-75
2023/08/14 01:08:14;;;;;;;1.97;1.57;;;;;;;22.23;nan;99404.69;5036547;28;20260;-75
2023/08/14 01:11:00;;;;;;;4.20;1.63;;;;;;;22.24;nan;99403.66;5036250;28;20221;-75
2023/08/14 01:13:44;;;;;;;2.07;1.70;;;;;;;22.25;nan;99391.13;5032863;28;20203;-75
2023/08/14 01:16:16;;;;;;;2.50;1.53;;;;;;;22.26;nan;99398.16;5031842;28;20454;-75
2023/08/14 01:18:44;;;;;;;1.80;1.40;;;;;;;22.28;nan;99388.09;5017026;28;20445;-75
2023/08/14 01:21:16;;;;;;;1.87;1.47;;;;;;;22.33;nan;99392.91;5017699;28;21091;-75
2023/08/14 01:23:50;;;;;;;3.07;1.97;;;;;;;22.34;nan;99395.41;5017783;28;20471;-76
2023/08/14 01:26:16;;;;;;;1.90;1.60;;;;;;;22.36;nan;99395.22;5034422;28;20426;-75
2023/08/14 01:28:41;;;;;;;3.23;1.70;;;;;;;22.37;nan;99394.22;5018340;28;20998;-75
2023/08/14 01:31:07;;;;;;;2.13;1.93;;;;;;;22.37;nan;99394.22;5036155;28;20213;-76
2023/08/14 01:33:32;;;;;;;3.53;1.90;;;;;;;22.36;nan;99404.09;5033577;28;20204;-75
2023/08/14 01:36:26;;;;;;;2.73;1.30;;;;;;;22.37;nan;99399.56;5015885;28;20688;-75
2023/08/14 01:38:59;;;;;;;4.50;1.50;;;;;;;22.38;nan;99401.22;5017040;28;20244;-75
2023/08/14 01:41:55;;;;;;;2.13;1.33;;;;;;;22.37;nan;99407.59;5018248;28;20434;-75
2023/08/14 01:44:24;;;;;;;2.40;1.73;;;;;;;22.37;nan;99411.09;5016785;28;20460;-76
2023/08/14 01:46:52;;;;;;;1.73;1.63;;;;;;;22.39;nan;99418.97;5029253;28;21044;-75
2023/08/14 01:49:19;;;;;;;1.93;1.73;;;;;;;22.41;nan;99416.91;5035871;28;20573;-75
2023/08/14 01:51:49;;;;;;;2.70;1.90;;;;;;;22.39;nan;99418.97;5034976;28;20504;-75
2023/08/14 01:54:14;;;;;;;1.93;1.30;;;;;;;22.39;nan;99419.78;5035112;28;20451;-75
2023/08/14 01:56:40;;;;;;;2.13;1.50;;;;;;;22.38;nan;99409.25;5034722;28;20434;-75
2023/08/14 01:59:05;;;;;;;6.93;1.83;;;;;;;22.35;nan;99397.06;5017097;28;20205;-76
2023/08/14 02:01:32;;;;;;;3.23;1.87;;;;;;;22.28;nan;99398.81;5014522;28;20194;-76
2023/08/14 02:03:57;;;;;;;1.50;1.40;;;;;;;22.24;nan;99403.66;5013326;28;21036;-75
2023/08/14 02:06:26;;;;;;;4.30;1.95;;;;;;;22.24;nan;99402.84;5010922;28;20722;-75
2023/08/14 02:08:51;;;;;;;4.73;2.00;;;;;;;22.20;nan;99398.88;5014668;28;20674;-75
2023/08/14 02:11:17;;;;;;;1.47;1.37;;;;;;;22.17;nan;99402.69;5035875;28;20192;-75
2023/08/14 02:13:42;;;;;;;5.07;2.17;;;;;;;22.18;nan;99409.72;5015134;28;20700;-75
2023/08/14 02:16:07;;;;;;;3.10;1.57;;;;;;;22.13;nan;99398.69;5035681;28;21138;-75
2023/08/14 02:18:33;;;;;;;2.63;1.57;;;;;;;22.02;nan;99391.09;5016369;28;20848;-75
2023/08/14 02:20:58;;;;;;;2.67;1.80;;;;;;;21.97;nan;99393.44;5034524;28;20209;-75
2023/08/14 02:23:23;;;;;;;4.03;2.07;;;;;;;21.93;nan;99394.78;5018818;28;20985;-75
2023/08/14 02:25:49;;;;;;;3.53;1.60;;;;;;;21.93;nan;99394.78;5032766;28;21136;-75
2023/08/14 02:28:14;;;;;;;2.13;1.30;;;;;;;21.92;nan;99387.78;5032694;28;20197;-75
2023/08/14 02:30:43;;;;;;;1.87;1.50;;;;;;;21.90;nan;99379.97;5012451;28;20205;-75
2023/08/14 02:33:09;;;;;;;3.33;1.53;;;;;;;21.83;nan;99377.16;5034908;28;20268;-75
2023/08/14 02:35:34;;;;;;;2.03;1.70;;;;;;;21.79;nan;99365.16;5034661;28;20543;-75
2023/08/14 02:38:01;;;;;;;2.40;1.83;;;;;;;21.75;nan;99368.34;5033368;28;20230;-75
2023/08/14 02:40:27;;;;;;;3.60;1.97;;;;;;;21.77;nan;99383.19;5017390;28;20539;-75
2023/08/14 02:42:56;;;;;;;2.23;1.47;;;;;;;21.81;nan;99381.00;5034484;28;21282;-75
2023/08/14 02:45:22;;;;;;;3.07;2.27;;;;;;;21.83;nan;99376.31;5033901;28;20784;-75
2023/08/14 02:47:47;;;;;;;2.10;1.90;;;;;;;21.83;nan;99382.50;5034633;28;20519;-75
2023/08/14 02:50:13;;;;;;;2.80;2.10;;;;;;;21.86;nan;99390.16;5030629;28;20209;-75
2023/08/14 02:52:38;;;;;;;2.63;2.43;;;;;;;21.91;nan;99403.00;5034797;28;20208;-75
2023/08/14 02:55:04;;;;;;;2.73;1.87;;;;;;;21.94;nan;99415.19;5035447;28;20209;-75
2023/08/14 02:57:29;;;;;;;2.23;1.80;;;;;;;21.92;nan;99419.88;5012292;28;20209;-75
2023/08/14 02:59:54;;;;;;;3.13;2.40;;;;;;;21.90;nan;99416.53;5027478;28;20638;-75
2023/08/14 03:02:20;;;;;;;1.80;1.67;;;;;;;21.88;nan;99428.25;5031758;28;20200;-75
2023/08/14 03:04:49;;;;;;;3.13;2.83;;;;;;;21.90;nan;99441.47;5019248;28;20244;-73
2023/08/14 03:07:14;;;;;;;2.40;2.20;;;;;;;21.95;nan;99439.06;5013347;28;21326;-74
2023/08/14 03:09:40;;;;;;;2.20;1.67;;;;;;;21.99;nan;99428.88;5032954;28;20456;-74
2023/08/14 03:12:06;;;;;;;2.13;1.70;;;;;;;22.01;nan;99433.06;5015253;28;20212;-74
2023/08/14 03:14:31;;;;;;;3.60;1.93;;;;;;;22.02;nan;99432.03;5032132;28;20197;-73
2023/08/14 03:16:56;;;;;;;2.50;2.27;;;;;;;22.03;nan;99447.06;5032264;28;20210;-73
2023/08/14 03:19:22;;;;;;;2.40;2.17;;;;;;;22.06;nan;99453.91;5014864;28;20469;-73
2023/08/14 03:21:50;;;;;;;3.10;2.77;;;;;;;22.09;nan;99465.09;5032930;28;20182;-73
2023/08/14 03:24:16;;;;;;;3.30;3.00;;;;;;;22.13;nan;99452.19;5013467;28;20209;-73
2023/08/14 03:26:42;;;;;;;2.70;2.50;;;;;;;22.16;nan;99445.66;5013761;28;20428;-74
2023/08/14 03:29:07;;;;;;;4.87;3.50;;;;;;;22.08;nan;99442.00;5031708;28;20435;-74
2023/08/14 03:31:34;;;;;;;3.23;2.77;;;;;;;21.95;nan;99417.69;5014537;28;20300;-74
2023/08/14 03:34:01;;;;;;;5.60;2.97;;;;;;;21.88;nan;99406.03;5013813;28;21016;-73
2023/08/14 03:36:27;;;;;;;5.20;3.30;;;;;;;21.87;nan;99397.19;5016974;28;21216;-73
2023/08/14 03:38:52;;;;;;;6.77;4.30;;;;;;;21.87;nan;99399.88;5014675;28;20206;-73
2023/08/14 03:41:19;;;;;;;4.90;3.57;;;;;;;21.87;nan;99397.19;5016742;28;20227;-73
2023/08/14 03:43:44;;;;;;;4.80;3.40;;;;;;;21.86;nan;99378.63;5014157;28;20308;-73
2023/08/14 03:46:10;;;;;;;2.93;2.70;;;;;;;21.73;nan;99370.34;5014355;28;20437;-73
2023/08/14 03:48:37;;;;;;;7.50;2.63;;;;;;;21.75;nan;99347.78;5034122;28;20232;-73
2023/08/14 03:51:02;;;;;;;4.33;3.60;;;;;;;21.69;nan;99348.50;5033525;28;21098;-74
2023/08/14 03:53:28;;;;;;;5.97;2.60;;;;;;;21.66;nan;99359.53;5015565;28;21102;-74
2023/08/14 03:55:53;;;;;;;3.87;3.07;;;;;;;21.66;nan;99356.88;5017722;28;20197;-74
2023/08/14 03:58:18;;;;;;;3.73;3.00;;;;;;;21.67;nan;99353.19;5036139;28;20221;-74
2023/08/14 04:00:46;;;;;;;4.07;3.50;;;;;;;21.67;nan;99345.16;5015504;28;20231;-74
2023/08/14 04:03:13;;;;;;;4.97;3.50;;;;;;;21.67;nan;99338.97;5031119;28;20176;-74
2023/08/14 04:05:42;;;;;;;4.67;3.40;;;;;;;21.63;nan;99344.69;5014016;28;20672;-74
2023/08/14 04:08:08;;;;;;;4.83;3.70;;;;;;;21.67;nan;99333.63;5033035;28;20958;-74
2023/08/14 04:10:34;;;;;;;3.67;3.30;;;;;;;21.69;nan;99331.63;5033141;28;20450;-74
2023/08/14 04:13:00;;;;;;;4.13;3.50;;;;;;;21.73;nan;99332.94;5014085;28;20205;-74
2023/08/14 04:15:26;;;;;;;6.10;4.07;;;;;;;21.75;nan;99321.03;5031125;28;20690;-74
2023/08/14 04:17:51;;;;;;;4.00;3.50;;;;;;;21.75;nan;99312.19;5033843;28;21005;-74
2023/08/14 04:20:16;;;;;;;4.50;4.10;;;;;;;21.76;nan;99321.88;5012995;28;20200;-74
2023/08/14 04:22:42;;;;;;;4.33;3.70;;;;;;;21.75;nan;99310.34;5031904;28;20193;-73
2023/08/14 04:25:08;;;;;;;6.40;5.80;;;;;;;21.77;nan;99308.34;5034275;28;20209;-74
2023/08/14 04:27:37;;;;;;;5.53;3.40;;;;;;;21.79;nan;99308.16;5036100;28;20198;-74
2023/08/14 04:30:06;;;;;;;4.40;3.87;;;;;;;21.82;nan;99305.97;5020374;28;20197;-74
2023/08/14 04:32:32;;;;;;;7.33;3.80;;;;;;;21.84;nan;99308.44;5030344;28;21146;-74
2023/08/14 04:34:58;;;;;;;6.50;3.90;;;;;;;21.87;nan;99300.94;5035858;28;20824;-74
2023/08/14 04:37:23;;;;;;;5.40;3.83;;;;;;;21.91;nan;99298.72;5035888;28;21359;-74
2023/08/14 04:39:49;;;;;;;4.17;3.77;;;;;;;21.94;nan;99292.19;5018991;28;20206;-74
2023/08/14 04:42:14;;;;;;;8.60;4.13;;;;;;;21.95;nan;99277.78;5034231;28;20196;-74
2023/08/14 04:44:40;;;;;;;3.50;3.20;;;;;;;21.97;nan;99281.13;5034763;28;20873;-74
2023/08/14 04:47:05;;;;;;;5.47;3.40;;;;;;;22.00;nan;99275.41;5017949;28;20202;-74
2023/08/14 04:49:31;;;;;;;5.13;4.20;;;;;;;22.02;nan;99278.75;5018061;28;20255;-75
2023/08/14 04:51:56;;;;;;;5.90;3.90;;;;;;;22.02;nan;99286.78;5016396;28;20201;-74
2023/08/14 04:54:22;;;;;;;5.30;4.57;;;;;;;22.00;nan;99286.94;5014715;28;20205;-74
2023/08/14 04:56:48;;;;;;;5.30;4.80;;;;;;;22.00;nan;99286.13;5019171;28;20259;-74
2023/08/14 04:59:14;;;;;;;4.17;3.87;;;;;;;22.02;nan;99284.09;5016747;28;20201;-73
2023/08/14 05:01:40;;;;;;;4.87;4.30;;;;;;;22.06;nan;99275.53;5011510;28;20799;-73
2023/08/14 05:04:06;;;;;;;5.63;4.47;;;;;;;22.13;nan;99270.28;5011208;28;20200;-74
2023/08/14 05:06:31;;;;;;;5.47;4.37;;;;;;;22.18;nan;99265.28;5031942;28;20958;-74
2023/08/14 05:08:57;;;;;;;5.50;3.60;;;;;;;22.39;nan;99258.41;5015507;28;20200;-74
2023/08/14 05:11:23;;;;;;;4.87;3.97;;;;;;;22.67;nan;99267.47;5015916;28;20531;-74
2023/08/14 05:13:49;;;;;;;5.53;3.87;;;;;;;22.95;nan;99270.34;5030305;28;20657;-74
2023/08/14 05:16:14;;;;;;;4.83;3.40;;;;;;;23.11;nan;99263.94;5015987;28;20992;-74
2023/08/14 05:18:39;;;;;;;4.07;3.60;;;;;;;23.29;nan;99271.59;5032285;28;20259;-73
2023/08/14 05:21:05;;;;;;;4.07;3.70;;;;;;;23.56;nan;99272.72;5014514;28;20194;-75
2023/08/14 05:23:30;;;;;;;4.90;3.50;;;;;;;23.87;nan;99268.94;5013693;28;20210;-75
2023/08/14 05:25:56;;;;;;;3.80;3.43;;;;;;;24.21;nan;99267.41;5029450;28;20202;-76
2023/08/14 05:28:21;;;;;;;5.57;4.07;;;;;;;24.64;nan;99270.84;5029795;28;20215;-74
2023/08/14 05:30:47;;;;;;;5.50;5.00;;;;;;;25.09;nan;99262.41;5031353;28;20221;-74
2023/08/14 05:33:13;;;;;;;3.30;3.07;;;;;;;25.34;nan;99271.63;5030564;28;20181;-75
2023/08/14 05:35:38;;;;;;;4.10;3.63;;;;;;;25.39;nan;99271.03;5031172;28;20182;-73
2023/08/14 05:38:04;;;;;;;4.43;3.40;;;;;;;25.44;nan;99275.78;5032822;28;20479;-75
2023/08/14 05:40:29;;;;;;;5.90;3.53;;;;;;;25.59;nan;99285.34;5029323;28;20421;-74
2023/08/14 05:43:09;;;;;;;4.70;3.00;;;;;;;25.90;nan;99275.13;5032155;28;20220;-74
2023/08/14 05:45:45;;;;;;;5.43;3.30;;;;;;;26.10;nan;99275.94;5028046;28;20700;-74
2023/08/14 05:48:12;;;;;;;3.40;3.10;;;;;;;25.94;nan;99279.03;5032165;28;20991;-74
2023/08/14 05:50:38;;;;;;;4.27;2.97;;;;;;;25.73;nan;99286.22;5027636;28;20466;-75
2023/08/14 05:53:04;;;;;;;6.07;3.50;;;;;;;25.85;nan;99282.97;5031923;28;20462;-74
2023/08/14 05:55:38;;;;;;;5.70;3.63;;;;;;;26.16;nan;99279.69;5026051;28;20458;-75
2023/08/14 05:58:08;;;;;;;6.10;3.77;;;;;;;26.39;nan;99280.09;5032378;28;20565;-74
2023/08/14 06:00:35;;;;;;;4.57;3.83;;;;;;;26.44;nan;99284.88;5030421;28;20643;-74
2023/08/14 06:03:01;;;;;;;5.53;4.10;;;;;;;26.34;nan;99285.28;5030524;28;20507;-74
2023/08/14 06:05:27;;;;;;;6.30;4.78;;;;;;;26.19;nan;99293.56;5009726;28;20535;-74
2023/08/14 06:07:54;;;;;;;4.87;3.77;;;;;;;26.35;nan;99296.88;5030155;28;20231;-75
2023/08/14 06:10:20;;;;;;;7.80;4.93;;;;;;;26.72;nan;99289.19;5028712;28;20200;-74
2023/08/14 06:12:48;;;;;;;3.87;3.57;;;;;;;27.10;nan;99287.44;5028520;28;20604;-75
2023/08/14 06:15:14;;;;;;;5.57;5.17;;;;;;;27.50;nan;99286.47;5026699;28;20582;-74
2023/08/14 06:17:40;;;;;;;9.50;3.80;;;;;;;27.90;nan;99278.19;5028428;28;20577;-74
2023/08/14 06:20:06;;;;;;;5.53;4.30;;;;;;;28.19;nan;99288.34;5029102;28;20508;-74
2023/08/14 06:22:32;;;;;;;4.13;3.73;;;;;;;28.19;nan;99290.19;5029021;28;20665;-75
2023/08/14 06:24:57;;;;;;;6.50;4.30;;;;;;;27.94;nan;99293.69;5028248;28;20508;-74
2023/08/14 06:27:23;;;;;;;10.87;4.90;;;;;;;27.51;nan;99299.72;5029886;28;20259;-74
2023/08/14 06:29:48;;;;;;;8.07;5.73;;;;;;;27.01;nan;99298.69;5030877;28;21212;-74
2023/08/14 06:32:14;;;;;;;4.63;4.00;;;;;;;26.55;nan;99305.81;5028868;28;20220;-74
2023/08/14 06:34:39;;;;;;;5.30;4.53;;;;;;;26.14;nan;99308.66;5029297;28;20231;-74
2023/08/14 06:37:05;;;;;;;5.17;4.67;;;;;;;25.80;nan;99303.19;5027316;28;20221;-74
2023/08/14 06:39:30;;;;;;;6.43;4.53;;;;;;;25.59;nan;99306.03;5029211;28;20197;-74
2023/08/14 06:41:56;;;;;;;6.93;4.97;;;;;;;25.70;nan;99302.75;5029553;28;20297;-75
2023/08/14 06:44:22;;;;;;;7.57;5.17;;;;;;;25.70;nan;99307.31;5028608;28;20922;-74
2023/08/14 06:46:47;;;;;;;10.00;6.20;;;;;;;25.76;nan;99307.34;5028531;28;20239;-74
2023/08/14 06:49:12;;;;;;;5.33;4.83;;;;;;;25.94;nan;99308.66;5029136;28;20201;-75
2023/08/14 06:51:38;;;;;;;6.13;4.67;;;;;;;26.38;nan;99294.59;5028982;28;20196;-74
2023/08/14 06:54:04;;;;;;;7.37;5.80;;;;;;;26.98;nan;99299.06;5027579;28;20206;-74
2023/08/14 06:56:30;;;;;;;5.30;4.80;;;;;;;27.49;nan;99301.84;5027440;28;20201;-74
2023/08/14 06:58:55;;;;;;;5.00;4.50;;;;;;;27.96;nan;99294.31;5030691;28;20483;-75
2023/08/14 07:01:22;;;;;;;9.03;5.37;;;;;;;28.50;nan;99302.03;5028304;28;20281;-75
2023/08/14 07:03:47;;;;;;;5.10;4.60;;;;;;;28.96;nan;99298.03;5026103;28;20195;-74
2023/08/14 07:06:13;;;;;;;4.40;4.00;;;;;;;29.28;nan;99304.16;5025692;28;20450;-74
2023/08/14 07:08:39;;;;;;;6.27;4.47;;;;;;;29.20;nan;99299.88;5029415;28;20288;-75
2023/08/14 07:13:45;;;;;;;8.03;3.90;;;;;;;29.13;nan;99299.09;5011846;28;21191;-77
2023/08/14 07:16:11;;;;;;;5.43;4.90;;;;;;;29.41;nan;99303.13;5018067;28;20453;-77
2023/08/14 07:18:36;;;;;;;6.90;6.20;;;;;;;29.76;nan;99306.84;5016381;28;20213;-77
2023/08/14 07:21:01;;;;;;;4.43;4.03;;;;;;;30.12;nan;99309.66;5017824;28;20190;-77
2023/08/14 07:23:27;;;;;;;4.30;3.90;;;;;;;30.45;nan;99313.75;5017919;28;20241;-77
2023/08/14 07:25:52;;;;;;;4.40;4.00;;;;;;;30.80;nan;99316.47;5016349;28;20791;-77
2023/08/14 07:28:18;;;;;;;4.50;4.20;;;;;;;30.88;nan;99318.84;5016090;28;20221;-77
2023/08/14 07:30:43;;;;;;;9.20;8.40;;;;;;;31.02;nan;99335.69;5015050;28;20240;-77
2023/08/14 07:33:13;;;;;;;8.03;7.17;;;;;;;31.14;nan;99344.66;5014501;28;20569;-77
2023/08/14 07:35:39;;;;;;;5.70;4.67;;;;;;;31.26;nan;99342.72;5014579;28;20682;-77
2023/08/14 07:38:04;;;;;;;8.10;6.60;;;;;;;31.29;nan;99333.28;5011647;28;20475;-77
2023/08/14 07:40:30;;;;;;;4.93;4.50;;;;;;;31.22;nan;99338.84;5010535;28;20740;-77
2023/08/14 07:42:55;;;;;;;4.33;3.93;;;;;;;30.89;nan;99336.75;5014230;28;20488;-77
2023/08/14 07:45:20;;;;;;;6.33;4.27;;;;;;;30.43;nan;99341.91;5014350;28;20198;-77
2023/08/14 07:47:46;;;;;;;5.37;3.97;;;;;;;29.99;nan;99338.59;5014060;28;20202;-77
2023/08/14 07:50:11;;;;;;;6.17;5.57;;;;;;;29.57;nan;99340.41;5011356;28;21004;-77
2023/08/14 07:52:37;;;;;;;5.07;4.10;;;;;;;29.17;nan;99346.28;5012560;28;20202;-77
2023/08/14 07:55:03;;;;;;;4.80;4.30;;;;;;;28.93;nan;99344.44;5014425;28;20563;-77
2023/08/14 07:57:28;;;;;;;4.43;4.13;;;;;;;28.74;nan;99346.28;5014492;28;20218;-77
2023/08/14 07:59:54;;;;;;;5.00;4.20;;;;;;;28.46;nan;99344.84;5013374;28;20461;-77
2023/08/14 08:02:20;;;;;;;5.70;4.70;;;;;;;28.31;nan;99344.34;5013216;28;20233;-77
2023/08/14 08:04:46;;;;;;;4.50;4.00;;;;;;;28.28;nan;99340.19;5010581;28;20206;-77
2023/08/14 08:07:11;;;;;;;4.90;4.40;;;;;;;28.55;nan;99345.44;5012514;28;20457;-77
2023/08/14 08:09:37;;;;;;;5.23;4.40;;;;;;;28.79;nan;99343.75;5012096;28;20297;-77
2023/08/14 08:12:02;;;;;;;16.53;5.80;;;;;;;28.76;nan;99339.63;5011654;28;20226;-77
2023/08/14 08:14:28;;;;;;;5.70;4.57;;;;;;;28.76;nan;99339.63;5011168;28;20282;-77
2023/08/14 08:16:53;;;;;;;4.70;4.03;;;;;;;28.70;nan;99340.50;5011779;28;20223;-77
2023/08/14 08:19:18;;;;;;;8.03;4.93;;;;;;;28.63;nan;99334.34;5011327;28;20873;-78
2023/08/14 08:21:44;;;;;;;6.53;3.90;;;;;;;28.81;nan;99347.91;5012622;28;20256;-75
2023/08/14 08:24:10;;;;;;;5.20;3.70;;;;;;;29.33;nan;99347.56;5011335;28;20301;-76
2023/08/14 08:26:36;;;;;;;5.30;4.47;;;;;;;29.59;nan;99345.59;4994268;28;20186;-76
2023/08/14 08:29:05;;;;;;;5.00;4.00;;;;;;;29.72;nan;99343.56;5010638;28;20507;-76
2023/08/14 08:31:31;;;;;;;5.77;3.47;;;;;;;29.88;nan;99335.84;5009158;28;20640;-77
2023/08/14 08:33:57;;;;;;;4.10;3.77;;;;;;;30.16;nan;99338.78;5011573;28;20476;-77
2023/08/14 08:36:22;;;;;;;4.97;4.40;;;;;;;30.27;nan;99337.16;5010817;28;20461;-77
2023/08/14 08:38:48;;;;;;;5.40;4.90;;;;;;;30.01;nan;99332.97;5011346;28;20648;-76
2023/08/14 08:41:19;;;;;;;4.37;4.07;;;;;;;29.64;nan;99341.16;5010290;28;20209;-76
2023/08/14 08:43:47;;;;;;;4.27;3.87;;;;;;;29.51;nan;99347.53;5008405;28;20194;-76
2023/08/14 08:46:13;;;;;;;4.70;4.03;;;;;;;29.61;nan;99357.00;5010260;28;20461;-77
2023/08/14 08:48:41;;;;;;;7.87;4.70;;;;;;;29.68;nan;99350.50;5009762;28;20538;-76
2023/08/14 08:51:08;;;;;;;7.03;4.00;;;;;;;29.79;nan;99348.91;5009116;28;20210;-77
2023/08/14 08:53:34;;;;;;;5.87;4.40;;;;;;;29.94;nan;99345.75;5010231;28;20536;-76
2023/08/14 08:55:59;;;;;;;7.97;4.13;;;;;;;30.10;nan;99347.81;5010965;28;20472;-77
2023/08/14 08:58:26;;;;;;;5.50;4.57;;;;;;;30.39;nan;99353.44;5009326;28;20218;-77
2023/08/14 09:00:54;;;;;;;5.10;3.90;;;;;;;30.64;nan;99358.66;5009344;28;20225;-77
2023/08/14 09:03:20;;;;;;;5.60;5.10;;;;;;;30.50;nan;99360.75;5008436;28;20468;-77
2023/08/14 09:05:46;;;;;;;5.17;4.73;;;;;;;30.38;nan;99370.75;5008941;28;20848;-77
2023/08/14 09:08:11;;;;;;;6.00;5.40;;;;;;;30.29;nan;99369.44;5010084;28;20476;-76
2023/08/14 09:10:37;;;;;;;4.60;4.20;;;;;;;30.20;nan;99366.22;5010294;28;20533;-76
2023/08/14 09:13:02;;;;;;;5.63;5.10;;;;;;;30.13;nan;99376.31;5010934;28;20256;-76
2023/08/14 09:15:28;;;;;;;6.10;4.90;;;;;;;30.10;nan;99376.78;5009855;28;20219;-76
2023/08/14 09:17:53;;;;;;;8.07;5.50;;;;;;;29.98;nan;99382.16;5011642;28;20213;-76
2023/08/14 09:20:20;;;;;;;7.73;5.00;;;;;;;29.84;nan;99381.53;5013209;28;20527;-76
2023/08/14 09:22:46;;;;;;;5.63;5.10;;;;;;;29.61;nan;99384.91;5012075;28;20217;-76
2023/08/14 09:25:12;;;;;;;5.53;5.03;;;;;;;29.58;nan;99393.47;5012183;28;20461;-76
2023/08/14 09:27:37;;;;;;;6.20;5.60;;;;;;;29.56;nan;99391.00;5014474;28;20519;-76
2023/08/14 09:30:06;;;;;;;7.73;6.00;;;;;;;29.59;nan;99397.00;5012518;28;20317;-77
2023/08/14 09:32:32;;;;;;;6.03;5.43;;;;;;;29.48;nan;99409.41;5010809;28;20203;-76
2023/08/14 09:34:59;;;;;;;5.87;5.23;;;;;;;29.35;nan;99413.09;5013295;28;20537;-76
2023/08/14 09:37:25;;;;;;;5.60;5.00;;;;;;;29.23;nan;99417.59;5012227;28;20239;-76
2023/08/14 09:40:17;;;;;;;6.00;5.50;;;;;;;29.14;nan;99414.38;5009775;28;20470;-76
2023/08/14 09:42:44;;;;;;;5.57;4.90;;;;;;;29.12;nan;99413.75;5011706;28;20479;-76
2023/08/14 09:45:12;;;;;;;6.67;6.07;;;;;;;29.14;nan;99414.38;5011239;28;20473;-76
2023/08/14 09:47:39;;;;;;;5.47;4.97;;;;;;;29.10;nan;99405.03;5011012;28;20480;-76
2023/08/14 09:50:06;;;;;;;5.90;5.40;;;;;;;29.08;nan;99407.97;5012453;28;20456;-76
2023/08/14 09:52:31;;;;;;;6.20;4.20;;;;;;;29.20;nan;99418.88;5008912;28;20489;-76
2023/08/14 09:54:58;;;;;;;5.40;4.97;;;;;;;29.42;nan;99423.84;5010369;28;20462;-76
2023/08/14 09:57:24;;;;;;;5.33;4.30;;;;;;;29.67;nan;99424.63;5010865;28;20243;-76
2023/08/14 09:59:51;;;;;;;5.23;4.73;;;;;;;29.92;nan;99435.38;5009430;28;20472;-76
2023/08/14 10:02:19;;;;;;;5.90;5.40;;;;;;;30.19;nan;99430.41;5013167;28;20218;-76
2023/08/14 10:04:46;;;;;;;6.07;5.17;;;;;;;30.27;nan;99423.03;5014027;28;20468;-77
2023/08/14 10:07:13;;;;;;;5.10;4.60;;;;;;;30.39;nan;99421.19;5011168;28;20457;-76
2023/08/14 10:09:44;;;;;;;5.57;5.07;;;;;;;30.68;nan;99419.50;5009601;28;20471;-77
2023/08/14 10:12:16;;;;;;;9.03;5.07;;;;;;;30.91;nan;99407.84;5013253;28;21048;-76
2023/08/14 10:14:47;;;;;;;5.37;4.87;;;;;;;31.02;nan;99417.06;5009733;28;21042;-76
2023/08/14 10:17:21;;;;;;;6.93;5.27;;;;;;;31.00;nan;99417.31;5012673;28;20456;-76
2023/08/14 10:19:51;;;;;;;5.57;5.00;;;;;;;30.97;nan;99422.38;5012434;28;20556;-76
2023/08/14 10:22:19;;;;;;;5.20;4.70;;;;;;;31.03;nan;99407.88;5016056;28;20496;-77
2023/08/14 10:24:45;;;;;;;6.00;4.93;;;;;;;31.17;nan;99403.84;5016241;28;20479;-77
2023/08/14 10:27:11;;;;;;;5.70;5.20;;;;;;;31.23;nan;99402.06;5015728;28;21085;-77
2023/08/14 10:29:37;;;;;;;5.97;5.40;;;;;;;31.28;nan;99396.75;5013705;28;20453;-76
2023/08/14 10:32:05;;;;;;;6.60;4.80;;;;;;;31.36;nan;99396.41;5015993;28;20221;-76
2023/08/14 10:34:32;;;;;;;5.60;5.00;;;;;;;31.35;nan;99400.16;5016630;28;20522;-76
2023/08/14 10:36:57;;;;;;;6.07;5.50;;;;;;;31.23;nan;99394.75;5016933;28;20472;-76
2023/08/14 10:39:37;;;;;;;5.10;4.70;;;;;;;31.20;nan;99392.53;5017055;28;20880;-77
2023/08/14 10:42:06;;;;;;;6.00;5.37;;;;;;;31.16;nan;99387.78;5017746;28;20194;-76
2023/08/14 10:44:34;;;;;;;5.23;4.73;;;;;;;31.17;nan;99384.03;5017593;28;21111;-77
2023/08/14 10:47:12;;;;;;;6.07;5.30;;;;;;;31.33;nan;99377.88;5017889;28;20473;-77
2023/08/14 10:49:53;;;;;;;6.50;5.07;;;;;;;31.53;nan;99377.50;5017815;28;20472;-77
2023/08/14 10:52:20;;;;;;;5.67;5.00;;;;;;;31.63;nan;99374.19;5017830;28;21053;-76
2023/08/14 10:54:53;;;;;;;5.20;4.70;;;;;;;31.65;nan;99378.31;5017996;28;20461;-76
2023/08/14 10:57:27;;;;;;;4.60;4.20;;;;;;;31.70;nan;99380.28;5011883;28;21129;-76
2023/08/14 10:59:57;;;;;;;5.93;5.33;;;;;;;31.72;nan;99373.53;5013348;28;20819;-76
2023/08/14 11:02:25;;;;;;;7.57;6.47;;;;;;;31.70;nan;99369.41;5016128;28;20539;-76
2023/08/14 11:05:11;;;;;;;5.77;5.27;;;;;;;31.67;nan;99364.47;5015164;28;20461;-76
2023/08/14 11:07:36;;;;;;;5.97;5.47;;;;;;;31.68;nan;99372.38;5016028;28;20452;-76
2023/08/14 11:10:05;;;;;;;5.83;5.23;;;;;;;31.69;nan;99362.34;5013437;28;20507;-77
2023/08/14 11:12:31;;;;;;;5.50;5.10;;;;;;;31.71;nan;99360.22;5011526;28;20734;-76
2023/08/14 11:14:57;;;;;;;7.00;6.00;;;;;;;31.77;nan;99370.09;5014230;28;20481;-76
2023/08/14 11:17:26;;;;;;;5.70;5.20;;;;;;;31.83;nan;99371.84;4996947;28;20534;-77
2023/08/14 11:19:52;;;;;;;7.23;5.73;;;;;;;31.91;nan;99360.59;5015212;28;20195;-76
2023/08/14 11:22:22;;;;;;;5.03;4.60;;;;;;;31.97;nan;99361.53;5011953;28;20579;-76
2023/08/14 11:24:47;;;;;;;8.93;5.57;;;;;;;31.89;nan;99353.75;5013281;28;20456;-77
2023/08/14 11:27:13;;;;;;;6.17;5.67;;;;;;;31.85;nan;99350.69;5016603;28;20457;-76
2023/08/14 11:29:38;;;;;;;6.73;6.13;;;;;;;31.78;nan;99339.16;5016368;28;20214;-76
2023/08/14 11:32:04;;;;;;;7.03;5.23;;;;;;;31.79;nan;99342.72;5016209;28;20243;-76
2023/08/14 11:34:34;;;;;;;6.10;5.50;;;;;;;31.75;nan;99331.50;5013431;28;20194;-76
2023/08/14 11:37:02;;;;;;;6.40;5.90;;;;;;;31.74;nan;99338.00;5015676;28;20548;-77
2023/08/14 11:39:27;;;;;;;6.70;5.40;;;;;;;31.66;nan;99341.94;5015953;28;20948;-76
2023/08/14 11:41:53;;;;;;;5.87;5.37;;;;;;;31.73;nan;99330.91;5014144;28;20953;-76
2023/08/14 11:44:19;;;;;;;6.83;6.00;;;;;;;31.79;nan;99327.25;5015151;28;20205;-75
2023/08/14 11:46:47;;;;;;;6.37;5.70;;;;;;;31.83;nan;99322.94;5014463;28;20949;-75
2023/08/14 11:49:14;;;;;;;5.63;5.20;;;;;;;31.90;nan;99323.63;5015365;28;21055;-75
2023/08/14 11:51:40;;;;;;;5.27;4.77;;;;;;;31.99;nan;99318.66;5008916;28;20847;-75